createdAt,value
2017-09-18T17:25:58.913Z,9.94
2017-09-18T17:28:26.416Z,9.94
2017-09-18T17:30:53.912Z,9.93
2017-09-18T17:33:21.458Z,9.85
2017-09-18T17:35:48.969Z,9.91
2017-09-18T17:38:16.566Z,9.67
2017-09-18T17:40:44.090Z,9.58
2017-09-18T17:43:11.602Z,9.58
2017-09-18T17:45:39.111Z,9.50
2017-09-18T17:48:06.632Z,9.58
2017-09-18T17:50:34.148Z,9.63
2017-09-18T17:53:01.657Z,9.58
2017-09-18T17:55:29.159Z,9.60
2017-09-18T17:57:56.661Z,9.67
2017-09-18T18:00:24.175Z,9.82
2017-09-18T18:02:51.702Z,9.75
2017-09-18T18:05:19.203Z,9.75
2017-09-18T18:07:46.709Z,9.75
2017-09-18T18:10:14.241Z,10.00
2017-09-18T18:12:41.781Z,9.76
2017-09-18T18:15:09.339Z,9.56
2017-09-18T18:17:36.848Z,9.52
2017-09-18T18:20:04.351Z,9.44
2017-09-18T18:22:31.879Z,9.47
2017-09-18T18:24:59.507Z,9.37
2017-09-18T18:27:27.022Z,9.30
2017-09-18T18:29:54.521Z,9.57
2017-09-18T18:32:22.089Z,9.56
2017-09-18T18:34:49.615Z,9.39
2017-09-18T18:37:17.151Z,9.32
2017-09-18T18:39:44.678Z,9.67
2017-09-18T18:42:12.207Z,9.58
2017-09-18T18:44:39.751Z,9.62
2017-09-18T18:47:07.251Z,9.55
2017-09-18T18:49:34.796Z,9.37
2017-09-18T18:52:02.297Z,9.62
2017-09-18T18:54:29.803Z,9.68
2017-09-18T18:56:57.311Z,9.85
2017-09-18T18:59:24.822Z,9.89
2017-09-18T19:01:52.375Z,10.02
2017-09-18T19:04:19.887Z,10.43
2017-09-18T19:06:47.392Z,10.48
2017-09-18T19:09:14.911Z,10.27
2017-09-18T19:11:42.522Z,10.33
2017-09-18T19:14:10.048Z,10.35
2017-09-18T19:16:37.577Z,9.99
2017-09-18T19:19:05.079Z,9.86
2017-09-18T19:21:32.604Z,9.75
2017-09-18T19:24:00.132Z,9.65
2017-09-18T19:26:27.638Z,9.71
2017-09-18T19:28:55.164Z,9.77
2017-09-18T19:31:22.686Z,9.99
2017-09-18T19:33:50.204Z,10.04
2017-09-18T19:36:17.716Z,9.99
2017-09-18T19:38:45.270Z,9.91
2017-09-18T19:41:12.808Z,9.77
2017-09-18T19:43:40.309Z,9.72
2017-09-18T19:46:07.826Z,9.67
2017-09-18T19:48:35.340Z,9.96
2017-09-18T19:51:02.877Z,10.06
2017-09-18T19:53:30.400Z,10.19
2017-09-18T19:55:58.890Z,10.34
2017-09-18T19:58:26.452Z,10.11
2017-09-18T20:00:54.017Z,9.97
2017-09-18T20:03:21.728Z,10.05
2017-09-18T20:05:49.291Z,10.16
2017-09-18T20:08:16.871Z,10.07
2017-09-18T20:10:44.394Z,10.13
2017-09-18T20:13:11.935Z,10.05
2017-09-18T20:15:39.459Z,10.14
2017-09-18T20:18:06.967Z,10.14
2017-09-18T20:20:34.485Z,10.18
2017-09-18T20:23:03.811Z,10.28
2017-09-18T20:25:31.447Z,10.04
2017-09-18T20:27:58.981Z,10.07
2017-09-18T20:30:26.505Z,9.99
2017-09-18T20:32:54.060Z,10.03
2017-09-18T20:35:21.564Z,10.09
2017-09-18T20:37:49.076Z,10.15
2017-09-18T20:40:16.632Z,9.96
2017-09-18T20:42:44.127Z,9.85
2017-09-18T20:45:11.660Z,9.75
2017-09-18T20:47:39.176Z,9.68
2017-09-18T20:50:06.696Z,9.69
2017-09-18T20:52:34.200Z,9.81
2017-09-18T20:55:01.765Z,9.92
2017-09-18T20:57:29.276Z,9.94
2017-09-18T20:59:56.804Z,9.89
2017-09-18T21:02:24.332Z,9.91
2017-09-18T21:04:51.878Z,10.08
2017-09-18T21:07:19.407Z,10.14
2017-09-18T21:09:46.931Z,9.88
2017-09-18T21:12:14.451Z,9.83
2017-09-18T21:14:42.002Z,9.88
2017-09-18T21:17:09.514Z,9.96
2017-09-18T21:19:37.020Z,10.32
2017-09-18T21:22:04.521Z,10.32
2017-09-18T21:24:32.035Z,10.51
2017-09-18T21:26:59.563Z,10.38
2017-09-18T21:29:27.088Z,10.29
2017-09-18T21:31:54.606Z,9.97
2017-09-18T21:34:22.158Z,9.83
2017-09-18T21:36:49.678Z,9.67
2017-09-18T21:39:17.214Z,9.55
2017-09-18T21:41:44.733Z,9.56
2017-09-18T21:44:12.252Z,9.53
2017-09-18T21:46:39.759Z,9.39
2017-09-18T21:49:07.284Z,9.35
2017-09-18T21:51:34.787Z,9.32
2017-09-18T21:54:02.289Z,9.23
2017-09-18T21:56:29.814Z,9.21
2017-09-18T21:58:57.310Z,9.12
2017-09-18T22:01:24.819Z,9.01
2017-09-18T22:03:52.314Z,8.85
2017-09-18T22:06:19.806Z,8.68
2017-09-18T22:08:47.329Z,8.59
2017-09-18T22:11:14.832Z,8.50
2017-09-18T22:13:42.334Z,8.38
2017-09-18T22:16:09.940Z,8.34
2017-09-18T22:18:37.443Z,8.26
2017-09-18T22:21:04.956Z,8.22
2017-09-18T22:23:32.471Z,8.13
2017-09-18T22:25:59.973Z,8.11
2017-09-18T22:28:27.466Z,8.12
2017-09-18T22:30:54.971Z,8.01
2017-09-18T22:33:22.486Z,7.97
2017-09-18T22:35:49.997Z,7.87
2017-09-18T22:38:17.537Z,7.74
2017-09-18T22:40:45.040Z,7.69
2017-09-18T22:43:12.568Z,7.77
2017-09-18T22:45:40.067Z,7.93
2017-09-18T22:48:07.584Z,7.96
2017-09-18T22:50:35.089Z,7.97
2017-09-18T22:53:02.585Z,7.99
2017-09-18T22:55:30.111Z,8.03
2017-09-18T22:57:57.624Z,8.05
2017-09-18T23:00:25.135Z,7.96
2017-09-18T23:02:52.644Z,7.79
2017-09-18T23:05:20.175Z,7.85
2017-09-18T23:07:47.699Z,8.03
2017-09-18T23:10:15.197Z,7.89
2017-09-18T23:12:42.711Z,7.98
2017-09-18T23:15:10.328Z,7.91
2017-09-18T23:17:37.835Z,7.81
2017-09-18T23:20:05.340Z,7.85
2017-09-18T23:22:32.833Z,7.80
2017-09-18T23:25:00.350Z,7.74
2017-09-18T23:27:27.857Z,7.71
2017-09-18T23:29:55.351Z,8.02
2017-09-18T23:32:22.864Z,7.98
2017-09-18T23:34:50.397Z,7.88
2017-09-18T23:37:17.897Z,7.88
2017-09-18T23:39:45.403Z,7.86
2017-09-18T23:42:12.915Z,7.99
2017-09-18T23:44:40.445Z,7.93
2017-09-18T23:47:07.949Z,7.85
2017-09-18T23:49:35.495Z,7.85
2017-09-18T23:52:02.999Z,7.81
2017-09-18T23:54:30.534Z,7.83
2017-09-18T23:56:58.057Z,7.77
2017-09-18T23:59:25.559Z,7.87
